Time;durP1;ratioP1;P1;durP2;ratioP2;P2;SDS_P1;SDS_P2;PMS_P1;PMS_P2;Temp;Humidity;BMP_temperature;BMP_pressure;BME280_temperature;BME280_humidity;BME280_pressure;Samples;Min_cycle;Max_cycle;Signal;HPM_P1;HPM_P2
2022/07/27 00:00:23;;;;;;;5.35;1.10;;;15.30;99.90;;;;;;5031297;28;20050;-49
2022/07/27 00:02:50;;;;;;;5.18;1.02;;;15.30;99.90;;;;;;5031003;28;20033;-43
2022/07/27 00:05:16;;;;;;;5.68;1.13;;;15.30;99.90;;;;;;5031564;28;20092;-48
2022/07/27 00:07:41;;;;;;;4.93;1.30;;;15.30;99.90;;;;;;5031150;28;20776;-46
2022/07/27 00:10:07;;;;;;;2.83;0.80;;;15.30;99.90;;;;;;5031056;28;20033;-43
2022/07/27 00:12:33;;;;;;;7.05;1.08;;;15.20;99.90;;;;;;5031247;28;20037;-49
2022/07/27 00:22:21;;;;;;;4.03;1.30;;;15.20;99.90;;;;;;5028353;28;20140;-51
2022/07/27 00:24:48;;;;;;;3.55;1.20;;;15.10;99.90;;;;;;5029347;28;20041;-49
2022/07/27 00:27:13;;;;;;;7.97;2.10;;;15.10;99.90;;;;;;5031378;28;20073;-46
2022/07/27 00:29:39;;;;;;;5.38;1.23;;;15.00;99.90;;;;;;5031365;28;20068;-47
2022/07/27 00:32:06;;;;;;;4.18;1.25;;;14.90;99.90;;;;;;5031672;28;20037;-50
2022/07/27 00:34:32;;;;;;;8.90;1.40;;;14.90;99.90;;;;;;5031603;28;20117;-47
2022/07/27 00:36:57;;;;;;;2.80;1.10;;;14.80;99.90;;;;;;5031045;28;20147;-49
2022/07/27 00:39:23;;;;;;;3.80;1.00;;;14.80;99.90;;;;;;5031205;28;20041;-45
2022/07/27 00:41:49;;;;;;;7.65;1.30;;;14.80;99.90;;;;;;5031194;28;20041;-49
2022/07/27 00:44:27;;;;;;;7.05;1.65;;;14.70;99.90;;;;;;5031185;28;20038;-47
2022/07/27 00:46:53;;;;;;;7.43;1.33;;;14.70;99.90;;;;;;5013461;28;20144;-45
2022/07/27 00:49:20;;;;;;;3.75;1.10;;;14.60;99.90;;;;;;5030999;28;20045;-46
2022/07/27 00:51:46;;;;;;;6.60;1.30;;;14.60;99.90;;;;;;5030455;28;20030;-43
2022/07/27 00:54:11;;;;;;;5.63;1.00;;;14.50;99.90;;;;;;5030979;28;20447;-47
2022/07/27 00:56:37;;;;;;;3.38;0.98;;;14.50;99.90;;;;;;5031152;28;20124;-48
2022/07/27 00:59:05;;;;;;;3.90;1.10;;;14.50;99.90;;;;;;5030921;28;20493;-45
2022/07/27 01:01:30;;;;;;;3.67;1.30;;;14.40;99.90;;;;;;5031133;28;20041;-47
2022/07/27 01:03:56;;;;;;;2.90;1.08;;;14.40;99.90;;;;;;5031225;28;20505;-48
2022/07/27 01:06:22;;;;;;;4.45;1.10;;;14.40;99.90;;;;;;5029530;28;20056;-49
2022/07/27 01:08:47;;;;;;;3.33;1.27;;;14.40;99.90;;;;;;5030959;28;20044;-47
2022/07/27 01:11:14;;;;;;;4.35;1.20;;;14.40;99.90;;;;;;5013015;28;20120;-49
2022/07/27 01:13:41;;;;;;;3.50;1.25;;;14.30;99.90;;;;;;5030377;28;20100;-46
2022/07/27 01:16:07;;;;;;;5.00;1.17;;;14.30;99.90;;;;;;5030802;28;20127;-45
2022/07/27 01:18:36;;;;;;;3.35;0.95;;;14.20;99.90;;;;;;5030642;28;20049;-45
2022/07/27 01:21:04;;;;;;;3.83;1.17;;;14.20;99.90;;;;;;5030797;28;20481;-45
2022/07/27 01:23:33;;;;;;;4.68;1.10;;;14.20;99.90;;;;;;5030629;28;20120;-46
2022/07/27 01:26:02;;;;;;;4.90;1.10;;;14.20;99.90;;;;;;5030585;28;20033;-44
2022/07/27 01:28:28;;;;;;;10.15;1.55;;;14.20;99.90;;;;;;5012554;28;20056;-49
2022/07/27 01:30:54;;;;;;;6.93;1.33;;;14.10;99.90;;;;;;5030637;28;20116;-45
2022/07/27 01:33:27;;;;;;;4.22;1.20;;;14.10;99.90;;;;;;5029342;28;20485;-46
2022/07/27 01:35:56;;;;;;;5.40;1.45;;;14.10;99.90;;;;;;5030641;28;20029;-45
2022/07/27 01:38:22;;;;;;;3.90;1.10;;;14.10;99.90;;;;;;5030852;28;20160;-50
2022/07/27 01:40:50;;;;;;;4.03;1.23;;;14.00;99.90;;;;;;5030565;28;20487;-46
2022/07/27 01:43:15;;;;;;;2.83;1.17;;;14.10;99.90;;;;;;5030341;28;20041;-47
2022/07/27 01:45:41;;;;;;;5.78;1.33;;;13.90;99.90;;;;;;5030181;28;20052;-51
2022/07/27 01:48:08;;;;;;;4.55;1.50;;;13.90;99.90;;;;;;5030416;28;20052;-52
2022/07/27 01:50:33;;;;;;;6.25;1.70;;;13.80;99.90;;;;;;5032761;28;20059;-45
2022/07/27 01:52:59;;;;;;;5.15;1.38;;;13.80;99.90;;;;;;5032400;28;20034;-47
2022/07/27 01:55:24;;;;;;;6.03;1.80;;;13.80;99.90;;;;;;5031784;28;20033;-45
2022/07/27 01:57:50;;;;;;;4.97;1.65;;;13.80;99.90;;;;;;5033799;28;20060;-47
2022/07/27 02:00:16;;;;;;;2.88;1.38;;;13.80;99.90;;;;;;5033938;28;20100;-45
2022/07/27 02:02:42;;;;;;;7.60;1.92;;;13.80;99.90;;;;;;5034120;28;20037;-45
2022/07/27 02:05:10;;;;;;;3.67;1.73;;;13.80;99.90;;;;;;5034076;28;20076;-48
2022/07/27 02:07:38;;;;;;;6.13;1.70;;;13.80;99.90;;;;;;5033976;28;20389;-45
2022/07/27 02:10:04;;;;;;;4.97;1.60;;;13.90;99.90;;;;;;5034063;28;20041;-46
2022/07/27 02:12:36;;;;;;;3.83;1.65;;;13.80;99.90;;;;;;4999842;28;20072;-50
2022/07/27 02:15:14;;;;;;;5.10;1.70;;;13.80;99.90;;;;;;5034332;28;20413;-49
2022/07/27 02:17:39;;;;;;;3.85;1.27;;;13.70;99.90;;;;;;5033915;28;20083;-46
2022/07/27 02:20:07;;;;;;;4.72;1.60;;;13.70;99.90;;;;;;5033799;28;20478;-47
2022/07/27 02:22:33;;;;;;;3.85;1.50;;;13.70;99.90;;;;;;5033503;28;20444;-48
2022/07/27 02:24:59;;;;;;;3.97;1.80;;;13.70;99.90;;;;;;5032167;28;20033;-45
2022/07/27 02:27:25;;;;;;;3.53;1.50;;;13.60;99.90;;;;;;5033545;28;20121;-47
2022/07/27 02:29:52;;;;;;;5.05;2.22;;;13.70;99.90;;;;;;5033607;28;20060;-48
2022/07/27 02:32:18;;;;;;;4.22;1.63;;;13.70;99.90;;;;;;5033889;28;20041;-44
2022/07/27 02:34:43;;;;;;;4.05;1.45;;;13.70;99.90;;;;;;5015745;28;20033;-47
2022/07/27 02:37:09;;;;;;;3.35;1.30;;;13.60;99.90;;;;;;5031730;28;20036;-47
2022/07/27 02:39:35;;;;;;;5.28;1.58;;;13.40;99.90;;;;;;5033474;28;20568;-47
2022/07/27 02:42:02;;;;;;;4.15;1.73;;;13.40;99.90;;;;;;5033616;28;20041;-47
2022/07/27 02:44:28;;;;;;;5.47;1.45;;;13.30;99.90;;;;;;5015695;28;20049;-49
2022/07/27 02:46:53;;;;;;;5.13;1.50;;;13.30;99.90;;;;;;5032234;28;20174;-50
2022/07/27 02:49:19;;;;;;;6.00;2.10;;;13.30;99.90;;;;;;5031921;28;20059;-46
2022/07/27 02:51:48;;;;;;;4.63;1.88;;;13.20;99.90;;;;;;5032730;28;20489;-48
2022/07/27 02:54:14;;;;;;;4.88;1.75;;;13.30;99.90;;;;;;5033466;28;20550;-44
2022/07/27 02:56:39;;;;;;;5.63;1.77;;;13.20;99.90;;;;;;5033165;28;20116;-48
2022/07/27 02:59:05;;;;;;;4.95;1.75;;;13.20;99.90;;;;;;5032700;28;20041;-47
2022/07/27 03:01:31;;;;;;;3.58;1.80;;;13.20;99.90;;;;;;5032720;28;20045;-48
2022/07/27 03:03:56;;;;;;;3.00;1.45;;;13.20;99.90;;;;;;5033180;28;20048;-45
2022/07/27 03:06:22;;;;;;;7.18;1.80;;;13.10;99.90;;;;;;5033093;28;20040;-47
2022/07/27 03:08:48;;;;;;;5.63;1.80;;;13.10;99.90;;;;;;5033110;28;20172;-50
2022/07/27 03:11:15;;;;;;;4.30;1.73;;;13.10;99.90;;;;;;5032818;28;20041;-45
2022/07/27 03:13:41;;;;;;;6.30;1.63;;;13.10;99.90;;;;;;5032787;28;20112;-47
2022/07/27 03:16:07;;;;;;;4.22;1.70;;;13.00;99.90;;;;;;5032935;28;20042;-51
2022/07/27 03:18:32;;;;;;;5.57;1.63;;;13.00;99.90;;;;;;5032813;28;20099;-48
2022/07/27 03:20:58;;;;;;;4.80;1.65;;;13.00;99.90;;;;;;5013285;28;20037;-51
2022/07/27 03:23:24;;;;;;;4.15;1.40;;;13.00;99.90;;;;;;5032215;28;20084;-49
2022/07/27 03:25:49;;;;;;;7.57;1.50;;;13.00;99.90;;;;;;5032683;28;20044;-47
2022/07/27 03:28:15;;;;;;;4.88;1.70;;;13.00;99.90;;;;;;5032773;28;20045;-48
2022/07/27 03:30:41;;;;;;;3.83;1.60;;;13.10;99.90;;;;;;5032580;28;21478;-44
2022/07/27 03:33:06;;;;;;;6.00;2.13;;;12.90;99.90;;;;;;5032420;28;20041;-45
2022/07/27 03:35:32;;;;;;;5.28;1.70;;;13.10;99.90;;;;;;5014643;28;20472;-49
2022/07/27 03:37:58;;;;;;;5.90;1.77;;;13.10;99.90;;;;;;5032592;28;20350;-45
2022/07/27 03:40:23;;;;;;;4.18;1.55;;;13.10;99.90;;;;;;5032575;28;20041;-45
2022/07/27 03:42:49;;;;;;;4.45;1.60;;;13.00;99.90;;;;;;5032431;28;20140;-48
2022/07/27 03:45:15;;;;;;;3.35;1.45;;;12.90;99.90;;;;;;5032226;28;20037;-49
2022/07/27 03:47:40;;;;;;;5.97;1.88;;;12.80;99.90;;;;;;5032465;28;20076;-46
2022/07/27 03:50:06;;;;;;;4.50;1.52;;;12.70;99.90;;;;;;5032357;28;20046;-49
2022/07/27 03:52:32;;;;;;;8.02;1.77;;;12.70;99.90;;;;;;5031821;28;20025;-46
2022/07/27 03:54:58;;;;;;;3.58;1.83;;;12.70;99.90;;;;;;5032198;28;20072;-47
2022/07/27 03:57:24;;;;;;;4.43;1.90;;;12.60;99.90;;;;;;5014263;28;20485;-49
2022/07/27 03:59:50;;;;;;;4.40;1.80;;;12.70;99.90;;;;;;5014252;28;20041;-45
2022/07/27 04:02:16;;;;;;;3.95;1.90;;;12.60;99.90;;;;;;5031869;28;20116;-45
2022/07/27 04:04:41;;;;;;;4.30;1.90;;;12.60;99.90;;;;;;5031882;28;20125;-48
2022/07/27 04:07:07;;;;;;;5.55;2.17;;;12.60;99.90;;;;;;5029539;28;20042;-46
2022/07/27 04:09:34;;;;;;;5.25;2.33;;;12.70;99.90;;;;;;5031603;28;20039;-49
2022/07/27 04:12:00;;;;;;;3.80;2.08;;;12.60;99.90;;;;;;5013200;28;20045;-46
2022/07/27 04:14:26;;;;;;;5.60;2.10;;;12.60;99.90;;;;;;5031896;28;20112;-47
2022/07/27 04:16:51;;;;;;;3.85;2.00;;;12.60;99.90;;;;;;5015533;28;20451;-48
2022/07/27 04:19:17;;;;;;;4.72;2.05;;;12.50;99.90;;;;;;5030120;28;20067;-48
2022/07/27 04:21:43;;;;;;;3.25;1.80;;;12.50;99.90;;;;;;5031365;28;20076;-47
2022/07/27 04:24:08;;;;;;;3.85;1.88;;;12.60;99.90;;;;;;5031378;28;20033;-46
2022/07/27 04:26:34;;;;;;;5.25;2.10;;;12.50;99.90;;;;;;5031269;28;20110;-45
2022/07/27 04:29:00;;;;;;;4.70;2.22;;;12.60;99.90;;;;;;5031382;28;20037;-48
2022/07/27 04:31:25;;;;;;;3.72;1.73;;;12.60;99.90;;;;;;5031174;28;20088;-47
2022/07/27 04:33:51;;;;;;;3.90;1.98;;;12.50;99.90;;;;;;5031419;28;20029;-49
2022/07/27 04:36:17;;;;;;;5.05;2.10;;;12.60;99.90;;;;;;5013651;28;20116;-47
2022/07/27 04:38:42;;;;;;;3.35;1.70;;;12.60;99.90;;;;;;5031311;28;20505;-45
2022/07/27 04:41:08;;;;;;;5.00;2.08;;;12.70;99.90;;;;;;5030776;28;20116;-46
2022/07/27 04:43:34;;;;;;;5.10;2.00;;;12.60;99.90;;;;;;5013345;28;20136;-47
2022/07/27 04:46:03;;;;;;;4.97;1.90;;;12.70;99.90;;;;;;5013400;28;20095;-46
2022/07/27 04:48:30;;;;;;;5.78;1.80;;;12.70;99.90;;;;;;5031141;28;20496;-47
2022/07/27 04:50:56;;;;;;;4.65;2.08;;;12.70;99.90;;;;;;5029254;28;20069;-45
2022/07/27 04:53:22;;;;;;;6.68;2.00;;;12.80;99.90;;;;;;5030435;28;20131;-49
2022/07/27 04:55:47;;;;;;;6.13;1.95;;;12.70;99.90;;;;;;5030987;28;20025;-45
2022/07/27 04:58:14;;;;;;;7.50;1.90;;;12.60;99.90;;;;;;5030965;28;20040;-45
2022/07/27 05:00:40;;;;;;;5.78;2.00;;;12.80;99.90;;;;;;5030308;28;20119;-45
2022/07/27 05:03:05;;;;;;;4.13;2.17;;;12.70;99.90;;;;;;5013065;28;20041;-45
2022/07/27 05:05:31;;;;;;;5.90;1.90;;;12.80;99.90;;;;;;5030613;28;20048;-46
2022/07/27 05:07:57;;;;;;;5.35;2.00;;;12.70;99.90;;;;;;5028945;28;20044;-47
2022/07/27 05:10:24;;;;;;;4.90;1.75;;;12.60;99.90;;;;;;5030575;28;20475;-47
2022/07/27 05:12:50;;;;;;;7.70;2.05;;;12.60;99.90;;;;;;5030996;28;20041;-45
2022/07/27 05:15:16;;;;;;;5.18;1.77;;;12.60;99.90;;;;;;5030942;28;20053;-49
2022/07/27 05:17:42;;;;;;;3.83;1.80;;;12.60;99.90;;;;;;5030899;28;20037;-45
2022/07/27 05:20:08;;;;;;;6.65;2.00;;;12.70;99.90;;;;;;5030810;28;20136;-45
2022/07/27 05:22:34;;;;;;;5.30;1.75;;;12.60;99.90;;;;;;5030393;28;20129;-46
2022/07/27 05:25:00;;;;;;;5.00;1.83;;;12.70;99.90;;;;;;5030405;28;20459;-47
2022/07/27 05:27:26;;;;;;;5.88;1.77;;;12.70;99.90;;;;;;5030370;28;20129;-44
2022/07/27 05:29:52;;;;;;;5.97;1.58;;;13.00;99.90;;;;;;5030443;28;20040;-47
2022/07/27 05:32:17;;;;;;;6.10;1.92;;;12.70;99.90;;;;;;5030642;28;20029;-46
2022/07/27 05:34:44;;;;;;;3.75;1.60;;;12.80;99.90;;;;;;5030537;28;20037;-45
2022/07/27 05:37:11;;;;;;;5.05;2.08;;;12.90;99.90;;;;;;5028681;28;20531;-49
2022/07/27 05:39:37;;;;;;;4.07;1.60;;;13.00;99.90;;;;;;5030244;28;20065;-45
2022/07/27 05:42:04;;;;;;;6.68;1.95;;;13.00;99.90;;;;;;5030249;28;20101;-48
2022/07/27 05:44:30;;;;;;;5.50;1.90;;;13.00;99.90;;;;;;5030190;28;20041;-47
2022/07/27 05:46:55;;;;;;;4.35;1.52;;;13.10;99.90;;;;;;5012675;28;20087;-48
2022/07/27 05:49:22;;;;;;;6.85;1.65;;;13.20;99.90;;;;;;5030350;28;20564;-45
2022/07/27 05:51:48;;;;;;;6.55;1.85;;;13.20;99.90;;;;;;5029850;28;20033;-45
2022/07/27 05:54:14;;;;;;;6.55;1.80;;;13.30;99.90;;;;;;5030348;28;20149;-48
2022/07/27 05:56:40;;;;;;;5.78;1.65;;;13.30;99.90;;;;;;5030069;28;20128;-44
2022/07/27 05:59:06;;;;;;;7.63;1.80;;;13.40;99.90;;;;;;5029960;28;20145;-48
2022/07/27 06:01:32;;;;;;;4.68;1.75;;;13.50;99.90;;;;;;5030149;28;20046;-47
2022/07/27 06:03:58;;;;;;;5.57;1.90;;;13.50;99.90;;;;;;5030415;28;20392;-49
2022/07/27 06:09:07;;;;;;;6.47;1.95;;;13.70;99.90;;;;;;5030126;28;20129;-44
2022/07/27 06:11:33;;;;;;;5.70;1.73;;;13.70;99.90;;;;;;5029901;28;20164;-46
2022/07/27 06:13:59;;;;;;;4.32;1.50;;;13.80;99.90;;;;;;5028828;28;20065;-47
2022/07/27 06:16:24;;;;;;;7.22;1.83;;;13.90;99.90;;;;;;5030060;28;20033;-45
2022/07/27 06:18:50;;;;;;;6.53;1.90;;;13.90;99.90;;;;;;5030428;28;20041;-49
2022/07/27 06:21:16;;;;;;;4.28;1.35;;;14.00;99.90;;;;;;5010815;28;20045;-47
2022/07/27 06:23:42;;;;;;;8.57;2.42;;;14.00;99.90;;;;;;5029259;28;20048;-51
2022/07/27 06:26:08;;;;;;;7.18;2.10;;;14.10;99.90;;;;;;5029898;28;20053;-48
2022/07/27 06:28:34;;;;;;;4.43;1.67;;;14.00;99.90;;;;;;5029869;28;20041;-48
2022/07/27 06:30:59;;;;;;;6.57;1.70;;;14.10;99.90;;;;;;5029759;28;20132;-48
2022/07/27 06:33:28;;;;;;;6.25;1.70;;;14.10;99.90;;;;;;5028614;28;20053;-46
2022/07/27 06:35:55;;;;;;;7.97;2.03;;;14.20;99.90;;;;;;5032238;28;20037;-45
2022/07/27 06:38:23;;;;;;;5.45;1.92;;;14.10;99.90;;;;;;5033623;28;20088;-49
2022/07/27 06:40:51;;;;;;;8.23;2.13;;;14.20;99.90;;;;;;5033603;28;20041;-45
2022/07/27 06:43:22;;;;;;;5.88;1.88;;;14.20;99.90;;;;;;5033681;28;20517;-50
2022/07/27 06:45:48;;;;;;;6.68;1.90;;;14.30;99.90;;;;;;5031282;28;20037;-49
2022/07/27 06:48:14;;;;;;;7.43;2.17;;;14.40;99.90;;;;;;5033308;28;20045;-46
2022/07/27 06:50:40;;;;;;;8.25;1.90;;;14.40;99.90;;;;;;5027406;28;20516;-46
2022/07/27 06:53:05;;;;;;;4.55;1.80;;;14.40;99.90;;;;;;5030490;28;20045;-48
2022/07/27 06:55:31;;;;;;;8.82;2.13;;;14.50;99.90;;;;;;5011612;28;20092;-46
2022/07/27 06:57:57;;;;;;;8.48;2.17;;;14.50;99.90;;;;;;5013981;28;20053;-47
2022/07/27 07:00:23;;;;;;;8.10;2.42;;;14.40;99.90;;;;;;5016385;28;20045;-46
2022/07/27 07:02:59;;;;;;;10.75;2.20;;;14.40;99.90;;;;;;5026652;28;20049;-47
2022/07/27 07:05:25;;;;;;;7.93;1.85;;;14.50;99.90;;;;;;5024009;28;20052;-51
2022/07/27 07:07:51;;;;;;;6.47;1.95;;;14.50;99.90;;;;;;5023466;28;20045;-48
2022/07/27 07:10:18;;;;;;;8.68;2.10;;;14.70;99.90;;;;;;5025599;28;20087;-49
2022/07/27 07:12:43;;;;;;;6.75;2.38;;;14.70;99.90;;;;;;5024693;28;20048;-50
2022/07/27 07:15:09;;;;;;;6.60;1.55;;;14.80;99.90;;;;;;5023721;28;20377;-53
2022/07/27 07:17:35;;;;;;;5.90;1.73;;;14.90;99.90;;;;;;5023766;28;20041;-46
2022/07/27 07:20:03;;;;;;;6.65;1.77;;;14.90;99.90;;;;;;5007761;28;20173;-49
2022/07/27 07:22:28;;;;;;;9.98;2.10;;;15.00;99.90;;;;;;5023364;28;20041;-46
2022/07/27 07:24:54;;;;;;;7.65;2.05;;;15.10;99.90;;;;;;5024349;28;20092;-49
2022/07/27 07:27:22;;;;;;;6.22;2.00;;;15.20;99.90;;;;;;5025663;28;20088;-50
2022/07/27 07:29:50;;;;;;;7.28;1.65;;;15.30;99.90;;;;;;5024081;28;20042;-45
2022/07/27 07:32:16;;;;;;;6.25;1.65;;;15.40;99.90;;;;;;5007243;28;20377;-50
2022/07/27 07:34:42;;;;;;;5.57;1.60;;;15.50;99.90;;;;;;5023385;28;20040;-51
2022/07/27 07:37:08;;;;;;;7.82;1.70;;;15.60;99.90;;;;;;5006332;28;20483;-45
2022/07/27 07:39:33;;;;;;;5.43;1.63;;;15.50;99.90;;;;;;5024292;28;20112;-48
2022/07/27 07:41:59;;;;;;;9.30;1.63;;;15.60;99.90;;;;;;5023827;28;20033;-47
2022/07/27 07:44:25;;;;;;;8.60;1.90;;;15.50;99.90;;;;;;5024210;28;20071;-49
2022/07/27 07:46:51;;;;;;;6.60;1.55;;;15.70;99.90;;;;;;5021398;28;20033;-48
2022/07/27 07:49:16;;;;;;;6.53;1.67;;;15.80;99.90;;;;;;5022213;28;20044;-46
2022/07/27 07:51:42;;;;;;;6.43;1.50;;;15.90;99.90;;;;;;5022440;28;20048;-52
2022/07/27 07:54:09;;;;;;;5.78;1.60;;;15.90;99.90;;;;;;5019448;28;20044;-47
2022/07/27 07:56:34;;;;;;;9.70;1.77;;;16.00;99.90;;;;;;5024174;28;20053;-45
2022/07/27 07:59:03;;;;;;;8.32;1.92;;;16.00;99.90;;;;;;4989846;28;20076;-46
2022/07/27 08:01:29;;;;;;;6.88;1.50;;;15.90;99.90;;;;;;5024595;28;22765;-46
2022/07/27 08:03:55;;;;;;;8.25;1.70;;;15.90;99.90;;;;;;5023069;28;20045;-49
2022/07/27 08:06:21;;;;;;;7.18;1.48;;;15.80;99.90;;;;;;5024451;28;20052;-47
2022/07/27 08:08:46;;;;;;;7.78;1.90;;;15.90;99.90;;;;;;5024286;28;20060;-49
2022/07/27 08:11:13;;;;;;;10.88;1.50;;;16.00;99.90;;;;;;5022953;28;20081;-48
2022/07/27 08:13:39;;;;;;;8.98;1.80;;;16.00;99.90;;;;;;5022019;28;20069;-46
2022/07/27 08:16:05;;;;;;;9.15;1.65;;;16.20;99.90;;;;;;5024338;28;20095;-48
2022/07/27 08:18:31;;;;;;;6.35;1.40;;;16.20;99.90;;;;;;5021450;28;20052;-45
2022/07/27 08:20:56;;;;;;;7.75;1.83;;;16.30;99.90;;;;;;5018133;28;20046;-44
2022/07/27 08:23:22;;;;;;;5.38;1.58;;;16.40;99.90;;;;;;5003289;28;20124;-47
2022/07/27 08:25:48;;;;;;;8.93;1.30;;;16.50;99.90;;;;;;5021239;28;20053;-49
2022/07/27 08:28:15;;;;;;;3.83;1.23;;;16.50;99.90;;;;;;5018409;28;20071;-51
2022/07/27 08:30:40;;;;;;;5.60;1.70;;;16.60;99.90;;;;;;5018444;28;20041;-46
2022/07/27 08:33:07;;;;;;;7.00;1.65;;;16.70;99.90;;;;;;5023936;28;20607;-46
2022/07/27 08:35:33;;;;;;;5.20;1.10;;;16.90;99.90;;;;;;5020950;28;20036;-48
2022/07/27 08:38:00;;;;;;;4.53;1.10;;;16.90;99.90;;;;;;5020892;28;20128;-47
2022/07/27 08:40:27;;;;;;;5.93;1.35;;;17.10;99.90;;;;;;5013118;28;20504;-50
2022/07/27 08:42:52;;;;;;;4.43;1.35;;;17.20;99.90;;;;;;4997386;28;20045;-49
2022/07/27 08:45:19;;;;;;;5.85;1.40;;;17.30;99.90;;;;;;5019818;28;20052;-48
2022/07/27 08:47:45;;;;;;;5.25;1.30;;;17.60;99.90;;;;;;5021381;28;20056;-47
2022/07/27 08:50:22;;;;;;;6.88;1.33;;;17.50;99.90;;;;;;5018726;28;20057;-48
2022/07/27 08:52:58;;;;;;;5.28;1.40;;;17.40;99.90;;;;;;5020302;28;20057;-47
2022/07/27 08:55:25;;;;;;;4.93;1.45;;;17.50;99.90;;;;;;5020341;28;20033;-48
2022/07/27 08:57:51;;;;;;;4.55;1.30;;;17.60;99.90;;;;;;5022155;28;20049;-46
2022/07/27 09:00:17;;;;;;;6.35;1.40;;;17.70;99.90;;;;;;5020749;28;20060;-48
2022/07/27 09:02:45;;;;;;;6.38;1.10;;;17.90;99.90;;;;;;5019171;28;20076;-51
2022/07/27 09:05:10;;;;;;;8.25;1.85;;;18.00;99.90;;;;;;5016006;28;20048;-51
2022/07/27 09:07:36;;;;;;;5.35;1.30;;;18.10;99.90;;;;;;5019320;28;20441;-48
2022/07/27 09:10:03;;;;;;;7.65;1.90;;;18.40;99.90;;;;;;5019874;28;20041;-49
2022/07/27 09:12:30;;;;;;;3.63;1.20;;;18.60;99.90;;;;;;5020578;28;20069;-47
2022/07/27 09:15:11;;;;;;;3.90;1.13;;;18.30;99.90;;;;;;5019118;28;20534;-50
2022/07/27 09:17:38;;;;;;;6.22;1.17;;;18.00;99.90;;;;;;5019893;28;20041;-49
2022/07/27 09:20:08;;;;;;;4.93;1.10;;;18.00;99.90;;;;;;5019839;28;20048;-48
2022/07/27 09:22:38;;;;;;;4.80;1.00;;;18.30;99.90;;;;;;5020605;28;20033;-47
2022/07/27 09:25:05;;;;;;;5.15;1.42;;;18.80;99.90;;;;;;5020631;28;20033;-49
2022/07/27 09:27:31;;;;;;;5.70;1.08;;;19.00;99.90;;;;;;5020217;28;20041;-51
2022/07/27 09:30:06;;;;;;;3.25;0.80;;;19.00;99.90;;;;;;5015043;28;20033;-48
2022/07/27 09:44:41;;;;;;;5.32;0.88;;;19.30;99.30;;;;;;5082074;28;20413;-49
2022/07/27 09:47:29;;;;;;;5.25;1.17;;;20.70;97.90;;;;;;5064419;28;20056;-51
2022/07/27 09:50:22;;;;;;;3.90;1.00;;;20.30;98.20;;;;;;5065705;28;20105;-43
2022/07/27 09:52:48;;;;;;;5.43;1.17;;;19.90;98.50;;;;;;5067321;28;20482;-50
2022/07/27 09:55:19;;;;;;;5.75;1.20;;;19.50;99.10;;;;;;5067373;28;20040;-46
2022/07/27 09:57:57;;;;;;;5.60;1.20;;;19.20;99.50;;;;;;5068217;28;20110;-46
2022/07/27 10:00:24;;;;;;;3.00;0.80;;;19.00;99.90;;;;;;5050139;28;20098;-48
2022/07/27 10:02:51;;;;;;;4.03;0.80;;;18.80;99.90;;;;;;5067566;28;20123;-47
2022/07/27 10:05:20;;;;;;;2.80;0.80;;;18.80;99.90;;;;;;5067947;28;20044;-46
2022/07/27 10:07:47;;;;;;;3.30;1.08;;;18.80;99.90;;;;;;5068089;28;20091;-50
2022/07/27 10:10:14;;;;;;;3.92;1.00;;;19.00;99.90;;;;;;5067959;28;20039;-45
2022/07/27 10:12:43;;;;;;;3.08;1.00;;;19.70;99.90;;;;;;5067915;28;20041;-50
2022/07/27 10:15:12;;;;;;;2.58;0.80;;;19.60;99.50;;;;;;5067941;28;20751;-47
2022/07/27 10:17:40;;;;;;;5.72;1.30;;;19.40;99.90;;;;;;5067532;28;20078;-47
2022/07/27 10:20:12;;;;;;;7.07;1.13;;;19.10;99.90;;;;;;5066654;28;20451;-47
2022/07/27 10:22:51;;;;;;;4.35;0.93;;;19.00;99.90;;;;;;5067592;28;20049;-47
2022/07/27 10:25:17;;;;;;;4.25;1.27;;;18.90;99.90;;;;;;5067553;28;20048;-48
2022/07/27 10:27:47;;;;;;;4.82;1.13;;;18.80;99.90;;;;;;5067542;28;20043;-48
2022/07/27 10:30:17;;;;;;;5.43;1.00;;;18.80;99.90;;;;;;5067451;28;20044;-47
2022/07/27 10:32:43;;;;;;;4.90;1.10;;;18.70;99.90;;;;;;5067055;28;20039;-45
2022/07/27 10:35:33;;;;;;;5.35;1.65;;;18.70;99.90;;;;;;5067381;28;20470;-47
2022/07/27 10:38:16;;;;;;;5.65;1.20;;;18.90;99.90;;;;;;5067294;28;20471;-45
2022/07/27 10:40:43;;;;;;;4.80;1.17;;;19.00;99.90;;;;;;5067177;28;20068;-47
2022/07/27 10:43:19;;;;;;;4.50;1.00;;;19.10;99.90;;;;;;5066888;28;20057;-48
2022/07/27 10:45:48;;;;;;;3.70;0.90;;;19.20;99.90;;;;;;5053331;28;20041;-45
2022/07/27 10:48:36;;;;;;;4.18;0.80;;;19.10;99.90;;;;;;5049563;28;20036;-48
2022/07/27 10:51:07;;;;;;;3.17;0.80;;;19.20;99.90;;;;;;5048354;28;20059;-46
2022/07/27 10:53:41;;;;;;;4.57;1.05;;;19.30;99.90;;;;;;5049637;28;20041;-48
2022/07/27 10:56:08;;;;;;;5.47;1.00;;;19.30;99.90;;;;;;5048167;28;20045;-49
2022/07/27 10:58:34;;;;;;;4.30;1.10;;;19.50;99.90;;;;;;5047997;28;20182;-51
2022/07/27 11:01:01;;;;;;;6.20;1.00;;;19.70;99.90;;;;;;5048320;28;20154;-46
2022/07/27 11:03:35;;;;;;;3.92;0.82;;;19.60;99.90;;;;;;5047936;28;20048;-47
2022/07/27 11:06:04;;;;;;;3.95;0.80;;;19.70;99.90;;;;;;5044903;28;20055;-49
2022/07/27 11:08:45;;;;;;;3.92;0.90;;;19.90;99.90;;;;;;5045049;28;20055;-49
2022/07/27 11:11:16;;;;;;;4.95;0.77;;;20.20;99.90;;;;;;5050305;28;20122;-46
2022/07/27 11:13:43;;;;;;;4.57;0.90;;;20.40;99.70;;;;;;5049603;28;20032;-50
2022/07/27 11:16:11;;;;;;;4.57;1.17;;;20.50;98.90;;;;;;5045242;28;20029;-48
2022/07/27 11:18:39;;;;;;;3.40;0.77;;;20.80;98.80;;;;;;5050310;28;20043;-48
2022/07/27 11:21:16;;;;;;;4.43;1.08;;;20.70;98.50;;;;;;5048835;28;20037;-49
2022/07/27 11:23:44;;;;;;;2.58;0.60;;;21.20;98.70;;;;;;5043067;28;20040;-49
2022/07/27 11:26:10;;;;;;;3.33;1.10;;;21.50;99.20;;;;;;5052066;28;20467;-47
2022/07/27 11:28:37;;;;;;;2.63;0.70;;;21.10;98.10;;;;;;5052336;28;20043;-49
2022/07/27 11:31:03;;;;;;;3.40;0.73;;;21.50;96.40;;;;;;5051505;28;20041;-52
2022/07/27 11:33:29;;;;;;;3.47;0.70;;;21.40;96.40;;;;;;5051986;28;20037;-48
2022/07/27 11:36:00;;;;;;;4.85;0.90;;;21.50;95.80;;;;;;5052950;28;20045;-50
2022/07/27 11:38:26;;;;;;;3.35;0.70;;;21.30;96.40;;;;;;5052666;28;20040;-50
2022/07/27 11:40:53;;;;;;;2.97;0.70;;;21.60;95.70;;;;;;5052476;28;20083;-45
2022/07/27 11:43:42;;;;;;;4.93;0.85;;;21.50;96.60;;;;;;5052472;28;20111;-48
2022/07/27 11:46:28;;;;;;;3.67;0.93;;;21.70;95.70;;;;;;5052685;28;20116;-48
2022/07/27 11:49:00;;;;;;;3.30;0.70;;;22.00;95.70;;;;;;5052854;28;20068;-49
2022/07/27 11:51:27;;;;;;;3.60;0.87;;;22.20;95.00;;;;;;5051063;28;20045;-50
2022/07/27 11:54:05;;;;;;;2.67;0.60;;;21.60;94.90;;;;;;5052553;28;20033;-48
2022/07/27 11:56:35;;;;;;;5.88;1.00;;;21.50;94.70;;;;;;5051276;28;20108;-47
2022/07/27 11:59:10;;;;;;;3.13;0.60;;;21.00;94.50;;;;;;5052544;28;20056;-49
2022/07/27 12:01:39;;;;;;;2.22;0.55;;;21.60;94.50;;;;;;5052307;28;20044;-49
2022/07/27 12:04:14;;;;;;;2.90;0.60;;;22.20;94.20;;;;;;5052208;28;20047;-50
2022/07/27 12:06:42;;;;;;;3.47;0.70;;;22.20;92.60;;;;;;5052327;28;20040;-51
2022/07/27 12:09:11;;;;;;;3.35;0.82;;;22.50;93.80;;;;;;5052022;28;20048;-47
2022/07/27 12:11:58;;;;;;;3.72;0.80;;;22.80;93.50;;;;;;5051977;28;20064;-48
2022/07/27 12:14:38;;;;;;;5.28;0.90;;;23.10;93.50;;;;;;5051976;28;20037;-48
2022/07/27 12:17:18;;;;;;;3.83;0.88;;;22.80;94.30;;;;;;5052023;28;20029;-50
2022/07/27 12:20:17;;;;;;;7.45;0.90;;;22.70;94.60;;;;;;5051917;28;20056;-45
2022/07/27 12:22:50;;;;;;;5.22;1.10;;;22.50;95.60;;;;;;5018465;28;20470;-51
2022/07/27 12:25:15;;;;;;;4.18;0.80;;;22.50;94.30;;;;;;5052087;28;20076;-49
2022/07/27 12:27:55;;;;;;;4.63;0.80;;;22.90;94.40;;;;;;5051814;28;20530;-48
2022/07/27 12:30:48;;;;;;;3.47;0.85;;;22.80;94.30;;;;;;5051781;28;20041;-48
2022/07/27 12:33:27;;;;;;;3.15;0.85;;;22.70;93.40;;;;;;5049276;28;20160;-47
2022/07/27 12:35:54;;;;;;;3.50;0.80;;;22.40;93.00;;;;;;5051476;28;20033;-51
2022/07/27 12:38:19;;;;;;;2.78;0.63;;;22.20;93.40;;;;;;5051267;28;20068;-45
2022/07/27 12:40:48;;;;;;;2.78;0.77;;;22.30;93.10;;;;;;5051537;28;20099;-46
2022/07/27 12:43:16;;;;;;;5.47;0.80;;;22.10;91.80;;;;;;5051252;28;20063;-50
2022/07/27 12:45:42;;;;;;;6.65;0.90;;;22.00;92.30;;;;;;5051400;28;20051;-48
2022/07/27 12:48:09;;;;;;;3.92;0.90;;;22.30;93.20;;;;;;5051227;28;20131;-48
2022/07/27 12:50:36;;;;;;;2.45;0.82;;;22.10;92.30;;;;;;5051521;28;20037;-47
2022/07/27 12:53:04;;;;;;;2.92;0.60;;;21.70;91.80;;;;;;5051207;28;20056;-46
2022/07/27 12:55:31;;;;;;;5.38;0.80;;;21.70;92.20;;;;;;5051320;28;20035;-47
2022/07/27 12:57:56;;;;;;;5.15;0.88;;;21.70;92.90;;;;;;5049848;28;20049;-49
2022/07/27 13:00:24;;;;;;;2.22;0.50;;;21.70;93.10;;;;;;5051168;28;20037;-49
2022/07/27 13:02:50;;;;;;;2.83;0.60;;;22.10;92.50;;;;;;5050754;28;20110;-49
2022/07/27 13:05:16;;;;;;;2.83;0.80;;;21.90;92.20;;;;;;5051252;28;20052;-49
2022/07/27 13:07:45;;;;;;;5.15;0.90;;;22.40;90.90;;;;;;5050782;28;20086;-47
2022/07/27 13:10:11;;;;;;;3.83;0.70;;;22.20;91.00;;;;;;5051144;28;20087;-47